createdAt,value
2018-07-14T00:02:20.876Z,95816.79
2018-07-14T00:04:50.957Z,95818.67
2018-07-14T00:07:21.152Z,95810.86
2018-07-14T00:09:51.301Z,95811.67
2018-07-14T00:12:21.434Z,95815.72
2018-07-14T00:14:51.514Z,95818.13
2018-07-14T00:17:21.286Z,95815.17
2018-07-14T00:19:51.359Z,95810.31
2018-07-14T00:22:21.500Z,95807.09
2018-07-14T00:24:51.579Z,95808.44
2018-07-14T00:27:21.714Z,95808.15
2018-07-14T00:29:51.780Z,95805.73
2018-07-14T00:32:21.968Z,95805.20
2018-07-14T00:34:52.067Z,95800.09
2018-07-14T00:37:22.246Z,95806.83
2018-07-14T00:39:52.343Z,95807.08
2018-07-14T00:42:22.471Z,95802.50
2018-07-14T00:44:52.636Z,95799.27
2018-07-14T00:47:22.778Z,95799.27
2018-07-14T00:49:52.878Z,95798.73
2018-07-14T00:52:22.994Z,95795.22
2018-07-14T00:54:53.097Z,95791.45
2018-07-14T00:57:23.213Z,95794.14
2018-07-14T00:59:53.392Z,95795.47
2018-07-14T01:02:23.478Z,95803.30
2018-07-14T01:04:53.614Z,95801.42
2018-07-14T01:07:23.787Z,95805.73
2018-07-14T01:09:53.894Z,95791.44
2018-07-14T01:12:39.716Z,95793.05
2018-07-14T01:15:10.080Z,95797.09
2018-07-14T01:17:40.695Z,95793.61
2018-07-14T01:20:10.856Z,95798.19
2018-07-14T01:22:41.052Z,95797.35
2018-07-14T01:25:11.163Z,95793.06
2018-07-14T01:27:41.531Z,95791.95
2018-07-14T01:30:11.966Z,95793.05
2018-07-14T01:32:42.136Z,95797.35
2018-07-14T01:35:12.314Z,95791.95
2018-07-14T01:37:42.576Z,95792.23
2018-07-14T01:40:12.680Z,95799.24
2018-07-14T01:42:42.760Z,95793.57
2018-07-14T01:45:12.904Z,95796.80
2018-07-14T01:47:42.946Z,95802.19
2018-07-14T01:50:13.022Z,95804.62
2018-07-14T01:52:43.142Z,95798.95
2018-07-14T01:55:13.276Z,95792.51
2018-07-14T01:57:43.374Z,95790.88
2018-07-14T02:00:13.501Z,95786.56
2018-07-14T02:02:43.654Z,95781.44
2018-07-14T02:05:15.028Z,95787.11
2018-07-14T02:07:45.205Z,95781.72
2018-07-14T02:10:15.281Z,95781.72
2018-07-14T02:12:44.937Z,95779.30
2018-07-14T02:15:15.041Z,95784.39
2018-07-14T02:17:45.158Z,95786.30
2018-07-14T02:20:15.317Z,95787.63
2018-07-14T02:22:45.419Z,95785.23
2018-07-14T02:25:15.537Z,95791.16
2018-07-14T02:27:45.613Z,95788.20
2018-07-14T02:30:15.711Z,95792.51
2018-07-14T02:32:45.797Z,95796.81
2018-07-14T02:35:15.950Z,95806.26
2018-07-14T02:37:46.025Z,95792.50
2018-07-14T02:40:16.134Z,95799.52
2018-07-14T02:42:46.203Z,95793.33
2018-07-14T02:45:16.333Z,95789.02
2018-07-14T02:47:46.425Z,95792.53
2018-07-14T02:50:16.578Z,95786.06
2018-07-14T02:52:46.655Z,95785.80
2018-07-14T02:55:16.767Z,95789.30
2018-07-14T02:57:46.890Z,95783.35
2018-07-14T03:00:17.023Z,95791.44
2018-07-14T03:02:47.112Z,95786.05
2018-07-14T03:05:17.207Z,95784.45
2018-07-14T03:07:47.355Z,95785.27
2018-07-14T03:10:17.434Z,95789.02
2018-07-14T03:12:47.494Z,95790.65
2018-07-14T03:15:17.613Z,95786.32
2018-07-14T03:17:47.679Z,95793.59
2018-07-14T03:20:17.851Z,95790.08
2018-07-14T03:22:47.962Z,95787.14
2018-07-14T03:25:18.059Z,95787.95
2018-07-14T03:27:47.688Z,95782.83
2018-07-14T03:30:17.834Z,95779.84
2018-07-14T03:32:47.956Z,95783.11
2018-07-14T03:35:18.163Z,95787.95
2018-07-14T03:37:48.306Z,95782.28
2018-07-14T03:40:18.415Z,95779.32
2018-07-14T03:42:48.569Z,95779.33
2018-07-14T03:45:18.694Z,95770.42
2018-07-14T03:47:48.791Z,95771.52
2018-07-14T03:50:18.887Z,95770.16
2018-07-14T03:52:48.977Z,95772.04
2018-07-14T03:55:19.096Z,95769.88
2018-07-14T03:57:49.213Z,95783.63
2018-07-14T04:00:19.336Z,95784.17
2018-07-14T04:02:49.385Z,95782.28
2018-07-14T04:05:19.480Z,95783.88
2018-07-14T04:07:49.557Z,95781.47
2018-07-14T04:10:19.657Z,95776.36
2018-07-14T04:12:49.736Z,95775.27
2018-07-14T04:15:19.941Z,95777.13
2018-07-14T04:17:57.540Z,95784.97
2018-07-14T04:20:27.695Z,95787.64
2018-07-14T04:22:57.780Z,95783.06
2018-07-14T04:25:27.860Z,95783.34
2018-07-14T04:27:58.389Z,95788.99
2018-07-14T04:30:28.493Z,95783.59
2018-07-14T04:32:58.569Z,95788.15
2018-07-14T04:35:28.726Z,95787.88
2018-07-14T04:37:58.787Z,95783.86
2018-07-14T04:40:29.535Z,95777.66
2018-07-14T04:42:59.619Z,95782.80
2018-07-14T04:45:29.754Z,95783.86
2018-07-14T04:47:59.866Z,95777.42
2018-07-14T04:50:29.956Z,95780.64
2018-07-14T04:53:00.112Z,95775.80
2018-07-14T04:55:31.178Z,95777.70
2018-07-14T04:58:01.239Z,95772.31
2018-07-14T05:00:31.367Z,95770.69
2018-07-14T05:03:01.458Z,95774.20
2018-07-14T05:05:31.530Z,95765.84
2018-07-14T05:08:01.855Z,95774.72
2018-07-14T05:10:31.942Z,95779.06
2018-07-14T05:13:02.064Z,95772.05
2018-07-14T05:15:32.157Z,95772.03
2018-07-14T05:18:02.264Z,95741.06
2018-07-14T05:20:32.345Z,95774.70
2018-07-14T05:23:02.464Z,95767.70
2018-07-14T05:25:32.588Z,95773.05
2018-07-14T05:28:02.669Z,95765.41
2018-07-14T05:30:32.741Z,95759.15
2018-07-14T05:33:02.862Z,95763.11
2018-07-14T05:35:32.930Z,95762.79
2018-07-14T05:38:03.046Z,95762.64
2018-07-14T05:40:33.114Z,95772.79
2018-07-14T05:43:03.239Z,95774.17
2018-07-14T05:45:33.306Z,95775.25
2018-07-14T05:48:03.492Z,95770.69
2018-07-14T05:50:33.552Z,95773.83
2018-07-14T05:53:03.684Z,95778.13
2018-07-14T05:55:33.797Z,95772.22
2018-07-14T05:58:03.939Z,95778.41
2018-07-14T06:00:34.023Z,95784.00
2018-07-14T06:03:04.207Z,95782.61
2018-07-14T06:05:34.393Z,95784.02
2018-07-14T06:08:04.659Z,95781.91
2018-07-14T06:10:34.700Z,95780.70
2018-07-14T06:13:04.876Z,95785.63
2018-07-14T06:15:34.962Z,95785.01
2018-07-14T06:18:05.115Z,95782.64
2018-07-14T06:20:35.187Z,95783.11
2018-07-14T06:23:05.427Z,95792.88
2018-07-14T06:25:35.473Z,95783.33
2018-07-14T06:28:05.641Z,95785.55
2018-07-14T06:30:35.370Z,95788.77
2018-07-14T06:33:05.549Z,95790.77
2018-07-14T06:35:35.661Z,95789.42
2018-07-14T06:38:05.899Z,95798.12
2018-07-14T06:40:36.024Z,95799.43
2018-07-14T06:43:06.334Z,95801.59
2018-07-14T06:45:36.449Z,95795.70
2018-07-14T06:48:06.694Z,95797.48
2018-07-14T06:50:36.704Z,95795.52
2018-07-14T06:53:06.892Z,95796.30
2018-07-14T06:55:37.017Z,95799.91
2018-07-14T06:58:07.245Z,95803.42
2018-07-14T07:00:37.364Z,95805.48
2018-07-14T07:03:07.560Z,95805.98
2018-07-14T07:05:37.639Z,95806.22
2018-07-14T07:08:08.253Z,95809.03
2018-07-14T07:10:38.294Z,95803.76
2018-07-14T07:13:08.505Z,95802.73
2018-07-14T07:15:38.595Z,95804.48
2018-07-14T07:18:08.798Z,95804.80
2018-07-14T07:20:40.149Z,95796.89
2018-07-14T07:23:11.611Z,95790.56
2018-07-14T07:25:42.490Z,95799.45
2018-07-14T07:28:12.622Z,95790.72
2018-07-14T07:30:42.731Z,95794.91
2018-07-14T07:33:12.910Z,95796.63
2018-07-14T07:35:43.107Z,95796.70
2018-07-14T07:38:13.218Z,95796.97
2018-07-14T07:40:43.617Z,95796.48
2018-07-14T07:43:13.771Z,95792.03
2018-07-14T07:45:44.309Z,95789.25
2018-07-14T07:48:14.449Z,95795.20
2018-07-14T07:50:44.441Z,95792.84
2018-07-14T07:53:14.500Z,95792.55
2018-07-14T07:55:44.708Z,95793.95
2018-07-14T07:58:14.858Z,95790.02
2018-07-14T08:00:44.872Z,95787.95
2018-07-14T08:03:15.017Z,95789.00
2018-07-14T08:05:45.401Z,95792.28
2018-07-14T08:08:15.562Z,95795.97
2018-07-14T08:10:45.655Z,95797.27
2018-07-14T08:13:15.765Z,95796.63
2018-07-14T08:15:45.857Z,95795.61
2018-07-14T08:18:15.871Z,95801.69
2018-07-14T08:20:45.967Z,95792.98
2018-07-14T08:23:16.018Z,95788.70
2018-07-14T08:25:46.249Z,95798.19
2018-07-14T08:28:15.888Z,95797.58
2018-07-14T08:30:45.984Z,95795.32
2018-07-14T08:33:16.119Z,95792.40
2018-07-14T08:35:46.235Z,95787.58
2018-07-14T08:38:15.871Z,95797.84
2018-07-14T08:40:46.059Z,95795.45
2018-07-14T08:43:16.105Z,95796.81
2018-07-14T08:45:46.165Z,95798.86
2018-07-14T08:48:16.239Z,95803.77
2018-07-14T08:50:46.291Z,95799.72
2018-07-14T08:53:16.366Z,95795.91
2018-07-14T08:55:46.452Z,95799.94
2018-07-14T08:58:16.561Z,95801.70
2018-07-14T09:00:46.619Z,95801.63
2018-07-14T09:03:16.636Z,95805.64
2018-07-14T09:05:46.709Z,95810.77
2018-07-14T09:08:16.813Z,95805.64
2018-07-14T09:10:46.874Z,95807.39
2018-07-14T09:13:16.882Z,95798.52
2018-07-14T09:15:46.911Z,95808.66
2018-07-14T09:18:16.935Z,95805.26
2018-07-14T09:20:47.118Z,95800.97
2018-07-14T09:23:17.188Z,95803.84
2018-07-14T09:25:47.582Z,95807.13
2018-07-14T09:28:18.237Z,95800.79
2018-07-14T09:30:48.303Z,95796.66
2018-07-14T09:33:18.362Z,95803.37
2018-07-14T09:35:48.407Z,95796.36
2018-07-14T09:38:18.405Z,95790.56
2018-07-14T09:40:49.942Z,95793.65
2018-07-14T09:43:20.027Z,95786.99
2018-07-14T09:45:50.093Z,95795.11
2018-07-14T09:48:20.132Z,95798.99
2018-07-14T09:50:50.182Z,95791.63
2018-07-14T09:53:20.227Z,95785.77
2018-07-14T09:55:51.275Z,95791.83
2018-07-14T09:58:21.353Z,95789.10
2018-07-14T10:00:56.517Z,95784.13
2018-07-14T10:03:26.588Z,95778.91
2018-07-14T10:05:56.674Z,95782.36
2018-07-14T10:08:26.756Z,95783.66
2018-07-14T10:10:56.832Z,95777.50
2018-07-14T10:13:27.050Z,95777.72
2018-07-14T10:15:57.227Z,95776.63
2018-07-14T10:18:27.283Z,95777.96
2018-07-14T10:20:57.374Z,95776.27
2018-07-14T10:23:27.421Z,95777.16
2018-07-14T10:25:57.586Z,95768.02
2018-07-14T10:28:27.538Z,95767.28
2018-07-14T10:30:57.576Z,95759.78
2018-07-14T10:33:27.675Z,95767.36
2018-07-14T10:35:57.739Z,95765.77
2018-07-14T10:38:27.755Z,95758.12
2018-07-14T10:40:57.794Z,95758.23
2018-07-14T10:43:27.793Z,95752.61
2018-07-14T10:45:57.839Z,95762.78
2018-07-14T10:48:27.886Z,95758.22
2018-07-14T10:50:57.954Z,95749.98
2018-07-14T10:53:28.084Z,95750.09
2018-07-14T10:55:58.177Z,95752.48
2018-07-14T10:58:28.168Z,95748.16
2018-07-14T11:00:58.246Z,95741.98
2018-07-14T11:03:28.318Z,95751.45
2018-07-14T11:05:58.387Z,95750.82
2018-07-14T11:08:28.468Z,95742.45
2018-07-14T11:10:58.523Z,95743.05
2018-07-14T11:13:28.592Z,95745.96
2018-07-14T11:15:58.646Z,95735.84
2018-07-14T11:18:28.752Z,95738.65
2018-07-14T11:20:58.812Z,95740.69
2018-07-14T11:23:28.882Z,95737.78
2018-07-14T11:25:59.105Z,95743.05
2018-07-14T11:28:29.160Z,95738.80
2018-07-14T11:30:59.228Z,95742.72
2018-07-14T11:33:29.483Z,95734.73
2018-07-14T11:35:59.591Z,95737.39
2018-07-14T11:38:29.270Z,95731.55
2018-07-14T11:40:59.344Z,95741.22
2018-07-14T11:43:29.643Z,95734.08
2018-07-14T11:45:59.679Z,95732.13
2018-07-14T11:48:30.271Z,95726.20
2018-07-14T11:51:00.374Z,95721.64
2018-07-14T11:53:30.489Z,95725.84
2018-07-14T11:56:00.567Z,95724.58
2018-07-14T11:58:30.631Z,95722.98
2018-07-14T12:01:00.740Z,95719.34
2018-07-14T12:03:30.840Z,95717.25
2018-07-14T12:06:00.959Z,95716.33
2018-07-14T12:08:31.053Z,95713.17
2018-07-14T12:11:01.154Z,95703.09
2018-07-14T12:13:31.364Z,95708.81
2018-07-14T12:16:01.396Z,95705.96
2018-07-14T12:18:31.456Z,95703.11
2018-07-14T12:21:01.630Z,95700.44
2018-07-14T12:23:31.720Z,95693.81
2018-07-14T12:26:01.752Z,95691.40
2018-07-14T12:28:32.021Z,95689.88
2018-07-14T12:31:02.108Z,95690.28
2018-07-14T12:33:32.239Z,95683.39
2018-07-14T12:36:02.468Z,95674.47
2018-07-14T12:38:32.554Z,95682.68
2018-07-14T12:41:02.607Z,95678.20
2018-07-14T12:43:32.730Z,95676.38
2018-07-14T12:46:02.851Z,95676.92
2018-07-14T12:48:32.937Z,95670.02
2018-07-14T12:51:03.011Z,95670.58
2018-07-14T12:53:33.422Z,95672.92
2018-07-14T12:56:03.264Z,95670.57
2018-07-14T12:58:33.348Z,95665.60
2018-07-14T13:01:03.650Z,95665.37
2018-07-14T13:03:33.741Z,95659.13
2018-07-14T13:06:03.775Z,95658.63
2018-07-14T13:08:33.810Z,95649.16
2018-07-14T13:11:03.842Z,95648.39
2018-07-14T13:13:33.986Z,95645.03
2018-07-14T13:16:04.092Z,95648.31
2018-07-14T13:18:34.191Z,95649.41
2018-07-14T13:21:04.403Z,95646.61
2018-07-14T13:23:34.601Z,95647.70
2018-07-14T13:26:04.747Z,95641.45
2018-07-14T13:28:34.956Z,95637.92
2018-07-14T13:31:05.120Z,95640.56
2018-07-14T13:33:35.206Z,95641.31
2018-07-14T13:36:05.259Z,95642.66
2018-07-14T13:38:35.347Z,95638.36
2018-07-14T13:41:05.426Z,95633.86
2018-07-14T13:43:35.505Z,95630.64
2018-07-14T13:46:05.624Z,95632.72
2018-07-14T13:48:35.943Z,95629.07
2018-07-14T13:51:06.132Z,95627.41
2018-07-14T13:53:36.277Z,95623.72
2018-07-14T13:56:06.391Z,95619.47
2018-07-14T13:58:36.485Z,95613.65
2018-07-14T14:01:06.546Z,95622.82
2018-07-14T14:03:36.570Z,95620.31
2018-07-14T14:06:06.580Z,95617.28
2018-07-14T14:08:36.689Z,95611.91
2018-07-14T14:11:06.781Z,95612.76
2018-07-14T14:13:36.951Z,95609.67
2018-07-14T14:16:07.650Z,95611.28
2018-07-14T14:18:37.704Z,95608.39
2018-07-14T14:21:08.065Z,95609.97
2018-07-14T14:23:38.069Z,95611.28
2018-07-14T14:26:07.720Z,95605.23
2018-07-14T14:28:37.874Z,95606.58
2018-07-14T14:31:08.232Z,95599.53
2018-07-14T14:33:38.420Z,95600.69
2018-07-14T14:36:08.459Z,95600.17
2018-07-14T14:38:38.440Z,95598.59
2018-07-14T14:41:09.161Z,95603.09
2018-07-14T14:43:39.248Z,95609.03
2018-07-14T14:46:09.370Z,95611.58
2018-07-14T14:48:39.408Z,95607.50
2018-07-14T14:51:09.500Z,95607.72
2018-07-14T14:53:39.571Z,95611.69
2018-07-14T14:56:09.812Z,95606.11
2018-07-14T14:58:39.789Z,95606.03
2018-07-14T15:01:09.861Z,95600.70
2018-07-14T15:03:39.938Z,95600.40
2018-07-14T15:06:10.117Z,95591.95
2018-07-14T15:08:40.193Z,95591.99
2018-07-14T15:11:10.260Z,95587.09
2018-07-14T15:13:40.315Z,95578.64
2018-07-14T15:16:10.041Z,95583.11
2018-07-14T15:18:40.117Z,95581.29
2018-07-14T15:21:10.192Z,95575.09
2018-07-14T15:23:40.260Z,95578.53
2018-07-14T15:26:10.315Z,95584.72
2018-07-14T15:28:40.371Z,95577.17
2018-07-14T15:31:10.477Z,95569.97
2018-07-14T15:33:40.621Z,95570.19
2018-07-14T15:36:10.767Z,95572.92
2018-07-14T15:38:40.821Z,95570.33
2018-07-14T15:41:10.907Z,95571.12
2018-07-14T15:43:41.276Z,95568.48
2018-07-14T15:46:11.430Z,95567.80
2018-07-14T15:48:41.541Z,95567.34
2018-07-14T15:51:11.632Z,95568.46
2018-07-14T15:53:41.691Z,95570.75
2018-07-14T15:56:11.817Z,95570.53
2018-07-14T15:58:41.901Z,95570.41
2018-07-14T16:01:12.010Z,95569.00
2018-07-14T16:03:42.038Z,95568.90
2018-07-14T16:06:12.193Z,95567.91
2018-07-14T16:08:41.872Z,95575.53
2018-07-14T16:11:12.010Z,95562.38
2018-07-14T16:13:41.706Z,95572.52
2018-07-14T16:16:11.984Z,95566.48
2018-07-14T16:18:42.431Z,95577.08
2018-07-14T16:21:13.445Z,95566.34
2018-07-14T16:23:43.658Z,95565.98
2018-07-14T16:26:13.845Z,95528.91
2018-07-14T16:28:43.953Z,95571.36
2018-07-14T16:31:14.152Z,95571.01
2018-07-14T16:33:45.041Z,95554.83
2018-07-14T16:36:15.248Z,95560.33
2018-07-14T16:38:45.378Z,95560.19
2018-07-14T16:41:15.646Z,95559.06
2018-07-14T16:43:45.782Z,95557.59
2018-07-14T16:46:15.989Z,95552.22
2018-07-14T16:48:46.139Z,95559.98
2018-07-14T16:51:16.368Z,95553.34
2018-07-14T16:53:46.536Z,95550.36
2018-07-14T16:56:16.853Z,95553.52
2018-07-14T16:58:47.066Z,95551.45
2018-07-14T17:01:17.208Z,95554.07
2018-07-14T17:03:47.348Z,95553.97
2018-07-14T17:06:17.546Z,95548.50
2018-07-14T17:08:47.704Z,95547.33
2018-07-14T17:11:17.912Z,95548.55
2018-07-14T17:13:48.076Z,95550.72
2018-07-14T17:16:18.278Z,95547.53
2018-07-14T17:18:48.453Z,95545.88
2018-07-14T17:21:19.353Z,95538.37
2018-07-14T17:23:49.439Z,95541.42
2018-07-14T17:26:19.598Z,95536.48
2018-07-14T17:28:49.738Z,95538.11
2018-07-14T17:31:19.897Z,95539.67
2018-07-14T17:33:50.007Z,95543.38
2018-07-14T17:36:20.253Z,95536.03
2018-07-14T17:38:50.876Z,95538.50
2018-07-14T17:41:21.228Z,95534.91
2018-07-14T17:43:51.535Z,95524.97
2018-07-14T17:46:22.195Z,95542.52
2018-07-14T17:48:52.308Z,95532.38
2018-07-14T17:51:22.539Z,95531.06
2018-07-14T17:53:52.575Z,95523.61
2018-07-14T17:56:22.744Z,95529.16
2018-07-14T17:58:52.867Z,95535.16
2018-07-14T18:01:23.062Z,95528.56
2018-07-14T18:03:53.163Z,95524.01
2018-07-14T18:06:23.267Z,95528.66
2018-07-14T18:08:53.393Z,95523.83
2018-07-14T18:11:23.511Z,95526.20
2018-07-14T18:13:53.615Z,95530.30
2018-07-14T18:16:23.800Z,95526.77
2018-07-14T18:18:53.843Z,95523.81
2018-07-14T18:21:23.507Z,95523.34
2018-07-14T18:23:53.582Z,95522.83
2018-07-14T18:26:23.682Z,95519.52
2018-07-14T18:28:53.796Z,95526.61
2018-07-14T18:31:23.868Z,95520.06
2018-07-14T18:33:54.006Z,95530.97
2018-07-14T18:36:24.169Z,95527.83
2018-07-14T18:38:54.308Z,95519.20
2018-07-14T18:41:24.491Z,95528.13
2018-07-14T18:43:54.721Z,95522.87
2018-07-14T18:46:24.876Z,95531.33
2018-07-14T18:48:54.982Z,95515.72
2018-07-14T18:51:25.112Z,95534.71
2018-07-14T18:53:55.440Z,95533.38
2018-07-14T18:56:25.581Z,95532.77
2018-07-14T18:58:56.074Z,95543.06
2018-07-14T19:01:26.170Z,95543.47
2018-07-14T19:03:56.270Z,95544.71
2018-07-14T19:06:26.845Z,95547.75
2018-07-14T19:08:56.977Z,95539.34
2018-07-14T19:11:27.340Z,95543.77
2018-07-14T19:13:57.503Z,95546.68
2018-07-14T19:16:27.654Z,95552.83
2018-07-14T19:18:57.776Z,95554.59
2018-07-14T19:21:27.824Z,95550.44
2018-07-14T19:23:57.930Z,95547.70
2018-07-14T19:26:28.183Z,95557.14
2018-07-14T19:28:57.777Z,95552.48
2018-07-14T19:31:27.924Z,95563.77
2018-07-14T19:33:58.377Z,95561.85
2018-07-14T19:36:28.500Z,95565.52
2018-07-14T19:38:58.592Z,95570.60
2018-07-14T19:41:28.241Z,95572.48
2018-07-14T19:43:58.331Z,95575.91
2018-07-14T19:46:28.417Z,95578.70
2018-07-14T19:48:58.577Z,95583.55
2018-07-14T19:51:28.697Z,95586.84
2018-07-14T19:53:59.069Z,95587.39
2018-07-14T19:56:29.140Z,95594.73
2018-07-14T19:58:59.238Z,95593.36
2018-07-14T20:01:29.339Z,95594.11
2018-07-14T20:03:59.472Z,95588.16
2018-07-14T20:06:29.587Z,95592.66
2018-07-14T20:08:59.795Z,95595.59
2018-07-14T20:11:29.897Z,95596.33
2018-07-14T20:14:00.032Z,95590.45
2018-07-14T20:16:30.227Z,95592.71
2018-07-14T20:19:00.343Z,95590.19
2018-07-14T20:21:30.421Z,95586.75
2018-07-14T20:24:00.515Z,95592.50
2018-07-14T20:26:30.173Z,95589.01
2018-07-14T20:29:00.250Z,95586.48
2018-07-14T20:31:30.324Z,95588.73
2018-07-14T20:34:00.938Z,95596.92
2018-07-14T20:36:31.164Z,95591.30
2018-07-14T20:39:01.265Z,95591.20
2018-07-14T20:41:31.447Z,95596.41
2018-07-14T20:44:01.455Z,95597.61
2018-07-14T20:46:31.510Z,95595.33
2018-07-14T20:49:01.420Z,95598.97
2018-07-14T20:51:31.525Z,95603.04
2018-07-14T20:54:01.576Z,95600.37
2018-07-14T20:56:31.668Z,95599.91
2018-07-14T20:59:01.827Z,95602.34
2018-07-14T21:01:31.462Z,95596.61
2018-07-14T21:04:01.580Z,95601.48
2018-07-14T21:06:32.637Z,95599.09
2018-07-14T21:09:02.749Z,95594.31
2018-07-14T21:11:32.829Z,95596.52
2018-07-14T21:14:03.803Z,95593.92
2018-07-14T21:16:33.911Z,95596.66
2018-07-14T21:19:04.358Z,95597.55
2018-07-14T21:21:34.449Z,95594.84
2018-07-14T21:24:04.539Z,95591.31
2018-07-14T21:26:34.604Z,95594.70
2018-07-14T21:29:04.368Z,95586.66
2018-07-14T21:31:34.425Z,95591.59
2018-07-14T21:34:04.549Z,95585.67
2018-07-14T21:36:34.612Z,95593.55
2018-07-14T21:39:06.096Z,95589.05
2018-07-14T21:41:36.464Z,95593.14
2018-07-14T21:44:06.561Z,95590.30
2018-07-14T21:46:36.556Z,95593.84
2018-07-14T21:49:06.740Z,95595.27
2018-07-14T21:51:36.864Z,95594.81
2018-07-14T21:54:06.553Z,95600.85
2018-07-14T21:56:36.618Z,95600.12
2018-07-14T21:59:06.876Z,95596.91
2018-07-14T22:01:42.266Z,95595.83
2018-07-14T22:04:12.329Z,95598.86
2018-07-14T22:06:42.436Z,95594.28
2018-07-14T22:09:12.949Z,95595.97
2018-07-14T22:11:42.836Z,95597.65
2018-07-14T22:14:13.076Z,95592.80
2018-07-14T22:16:43.204Z,95598.23
2018-07-14T22:19:14.164Z,95599.07
2018-07-14T22:21:44.339Z,95598.91
2018-07-14T22:24:14.593Z,95610.27
2018-07-14T22:26:44.670Z,95604.09
2018-07-14T22:29:14.750Z,95601.95
2018-07-14T22:31:44.429Z,95610.37
2018-07-14T22:34:14.511Z,95603.37
2018-07-14T22:36:44.604Z,95610.44
2018-07-14T22:39:14.773Z,95614.49
2018-07-14T22:41:48.586Z,95608.41
2018-07-14T22:44:19.810Z,95604.64
2018-07-14T22:46:49.933Z,95608.20
2018-07-14T22:49:20.037Z,95605.84
2018-07-14T22:51:50.784Z,95612.91
2018-07-14T22:54:20.513Z,95613.74
2018-07-14T22:56:51.299Z,95621.33
2018-07-14T22:59:21.434Z,95617.83
2018-07-14T23:01:51.528Z,95616.52
2018-07-14T23:04:21.609Z,95616.31
2018-07-14T23:06:51.818Z,95622.55
2018-07-14T23:09:22.493Z,95627.15
2018-07-14T23:11:52.600Z,95624.23
2018-07-14T23:14:22.664Z,95624.52
2018-07-14T23:16:52.805Z,95619.70
2018-07-14T23:19:22.863Z,95624.05
2018-07-14T23:21:52.953Z,95621.66
2018-07-14T23:24:22.999Z,95617.09
2018-07-14T23:26:53.075Z,95623.59
2018-07-14T23:29:23.165Z,95621.47
2018-07-14T23:31:53.297Z,95616.39
2018-07-14T23:34:24.017Z,95613.48
2018-07-14T23:36:54.231Z,95614.27
2018-07-14T23:39:24.255Z,95611.61
2018-07-14T23:41:54.368Z,95608.41
2018-07-14T23:44:24.676Z,95608.67
2018-07-14T23:46:54.803Z,95606.02
2018-07-14T23:49:24.891Z,95601.71
2018-07-14T23:51:55.091Z,95602.00
2018-07-14T23:54:25.280Z,95600.95
2018-07-14T23:56:55.751Z,95601.49
2018-07-14T23:59:25.812Z,95595.80
